ΕΜΥ, Εθνική Μετεωρολογική Υπηρεσία - Δελτία Καιρού, Προγνώσεις

ΑΕΡΟΝΑΥΤΙΛΙΑ

GREEK AIRPORTS CODES

TAF LGPZ 130500Z 1306/1406 VRB05KT 9999 FEW030 SCT070 BECMG 1310/1312 27012KT BECMG 1319/1321 VRB05KT BECMG 1401/1403 09010KT TEMPO 1322/1406 11010G20KT=

EUROPEAN AIRPORTS CODES